Time;durP1;ratioP1;P1;durP2;ratioP2;P2;SDS_P1;SDS_P2;PMS_P1;PMS_P2;Temp;Humidity;BMP_temperature;BMP_pressure;BME280_temperature;BME280_humidity;BME280_pressure;Samples;Min_cycle;Max_cycle;Signal;HPM_P1;HPM_P2
2023/01/04 00:01:56;;;;;;;2.22;1.60;;;;;;;13.19;100.00;97889.78;5075252;28;20043;-86
2023/01/04 00:04:21;;;;;;;1.60;1.50;;;;;;;13.09;100.00;97900.13;5075028;28;20033;-87
2023/01/04 00:06:48;;;;;;;1.40;1.30;;;;;;;13.31;100.00;97936.31;5082150;28;20486;-85
2023/01/04 00:09:14;;;;;;;2.20;1.38;;;;;;;13.50;100.00;97948.25;5078747;28;20036;-85
2023/01/04 00:11:39;;;;;;;1.40;1.30;;;;;;;13.11;100.00;97937.56;5079207;28;20436;-84
2023/01/04 00:14:05;;;;;;;4.35;1.50;;;;;;;13.61;100.00;97948.41;5079970;28;20056;-83
2023/01/04 00:16:31;;;;;;;1.38;1.27;;;;;;;13.24;100.00;97929.38;5077051;28;20074;-86
2023/01/04 00:18:57;;;;;;;1.20;1.10;;;;;;;13.25;100.00;97949.41;5083969;28;20059;-86
2023/01/04 00:21:25;;;;;;;1.13;1.02;;;;;;;13.45;100.00;97966.63;5077694;28;20159;-85
2023/01/04 00:23:52;;;;;;;1.80;1.20;;;;;;;13.87;100.00;97967.22;5078446;28;20031;-87
2023/01/04 00:26:30;;;;;;;2.17;1.05;;;;;;;13.94;100.00;97968.66;5077136;28;20035;-86
2023/01/04 00:29:00;;;;;;;1.23;1.13;;;;;;;13.98;100.00;97964.50;5080523;28;20040;-85
2023/01/04 00:31:27;;;;;;;1.50;1.33;;;;;;;13.48;100.00;97941.63;5076844;28;20458;-85
2023/01/04 00:33:54;;;;;;;2.08;1.30;;;;;;;13.86;100.00;97963.81;5070340;28;20111;-85
2023/01/04 00:36:19;;;;;;;1.30;1.20;;;;;;;14.07;100.00;97956.16;5084694;28;20031;-86
2023/01/04 00:38:45;;;;;;;1.55;1.20;;;;;;;13.66;100.00;97966.94;5080236;28;20078;-86
2023/01/04 00:41:11;;;;;;;1.85;1.35;;;;;;;13.54;100.00;97974.94;5078287;28;20020;-86
2023/01/04 00:43:37;;;;;;;1.25;1.08;;;;;;;13.98;100.00;97974.25;5082151;28;20416;-88
2023/01/04 00:46:05;;;;;;;1.23;1.13;;;;;;;13.33;100.00;97965.84;5081160;28;20051;-86
2023/01/04 00:48:31;;;;;;;1.10;0.90;;;;;;;13.67;100.00;97973.81;5079707;28;20029;-86
2023/01/04 00:50:58;;;;;;;2.25;1.00;;;;;;;13.68;100.00;97964.84;5086507;28;20492;-86
2023/01/04 00:53:24;;;;;;;1.63;0.95;;;;;;;13.63;100.00;97989.28;5085187;28;20454;-87
2023/01/04 00:55:50;;;;;;;1.10;1.00;;;;;;;13.72;100.00;97997.59;5083193;28;20115;-86
2023/01/04 00:58:16;;;;;;;1.73;1.20;;;;;;;13.56;100.00;97988.66;5079216;28;20020;-87
2023/01/04 01:00:42;;;;;;;1.35;1.15;;;;;;;13.37;100.00;98006.53;5086728;28;20543;-88
2023/01/04 01:03:08;;;;;;;3.83;1.15;;;;;;;13.22;100.00;98007.06;5079187;28;20028;-87
2023/01/04 01:05:34;;;;;;;1.30;1.20;;;;;;;13.15;100.00;97983.47;5086145;28;20024;-86
2023/01/04 01:10:46;;;;;;;2.08;1.08;;;;;;;13.65;100.00;97986.44;5077087;28;20040;-86
2023/01/04 01:13:11;;;;;;;1.17;1.08;;;;;;;13.74;100.00;97982.34;5081402;28;20023;-86
2023/01/04 01:15:37;;;;;;;1.73;1.25;;;;;;;13.59;100.00;97985.56;5084352;28;20028;-85
2023/01/04 01:18:03;;;;;;;2.63;1.10;;;;;;;13.77;100.00;97997.69;5079215;28;20050;-85
2023/01/04 01:20:28;;;;;;;2.35;1.05;;;;;;;13.73;100.00;97993.16;5084239;28;20103;-86
2023/01/04 01:22:54;;;;;;;1.42;1.10;;;;;;;13.40;100.00;97991.03;5088717;28;20036;-86
2023/01/04 01:25:20;;;;;;;1.08;1.00;;;;;;;13.94;100.00;98004.78;5081790;28;20044;-85
2023/01/04 01:27:46;;;;;;;1.05;0.95;;;;;;;13.80;100.00;98010.41;5077777;28;20032;-86
2023/01/04 01:30:12;;;;;;;2.95;1.10;;;;;;;13.74;100.00;98021.91;5085861;28;20032;-85
2023/01/04 01:32:37;;;;;;;2.10;1.00;;;;;;;13.73;100.00;98007.13;5082185;28;20437;-87
2023/01/04 01:35:03;;;;;;;1.13;0.90;;;;;;;13.82;100.00;98013.59;5083161;28;20020;-87
2023/01/04 01:37:31;;;;;;;1.60;1.02;;;;;;;13.76;100.00;98013.75;5081271;28;20621;-86
2023/01/04 01:39:57;;;;;;;1.20;1.10;;;;;;;13.47;100.00;98006.72;5061063;28;20111;-87
2023/01/04 01:42:23;;;;;;;1.15;0.93;;;;;;;13.47;100.00;98021.75;5083690;28;20034;-86
2023/01/04 01:44:57;;;;;;;1.10;1.00;;;;;;;13.50;100.00;98006.25;5078426;28;20029;-86
2023/01/04 01:47:31;;;;;;;1.42;1.20;;;;;;;13.45;100.00;98029.06;5083481;28;20536;-88
2023/01/04 01:49:56;;;;;;;1.20;1.10;;;;;;;13.73;100.00;98030.06;5081706;28;20031;-85
2023/01/04 01:52:30;;;;;;;1.30;1.20;;;;;;;13.97;100.00;98020.94;5084393;28;20032;-85
2023/01/04 01:55:01;;;;;;;2.72;1.40;;;;;;;13.69;100.00;98012.09;5073911;28;20122;-85
2023/01/04 01:57:33;;;;;;;1.42;1.33;;;;;;;13.72;100.00;98018.69;5086465;28;20061;-86
2023/01/04 02:00:03;;;;;;;2.47;1.40;;;;;;;13.62;100.00;98013.28;5081089;28;20089;-86
2023/01/04 02:02:29;;;;;;;6.75;1.85;;;;;;;13.59;100.00;98013.78;5084581;28;20036;-85
2023/01/04 02:04:57;;;;;;;1.30;1.20;;;;;;;13.48;100.00;98018.88;5075948;28;21417;-86
2023/01/04 02:07:25;;;;;;;2.22;1.17;;;;;;;13.68;100.00;98013.13;5074936;28;20086;-85
2023/01/04 02:09:52;;;;;;;2.60;1.20;;;;;;;13.54;100.00;98023.16;5085089;28;20123;-84
2023/01/04 02:12:18;;;;;;;1.10;0.98;;;;;;;13.57;100.00;98033.25;5082444;28;20098;-85
2023/01/04 02:14:46;;;;;;;1.00;0.88;;;;;;;13.61;100.00;98027.50;5079025;28;20043;-85
2023/01/04 02:17:19;;;;;;;2.85;1.25;;;;;;;13.63;100.00;98020.94;5081700;28;20032;-87
2023/01/04 02:19:48;;;;;;;0.98;0.90;;;;;;;13.49;100.00;98046.81;5067327;28;20477;-85
2023/01/04 02:22:20;;;;;;;1.85;0.98;;;;;;;13.36;100.00;98047.06;5059870;28;20036;-86
2023/01/04 02:25:15;;;;;;;0.95;0.73;;;;;;;13.38;100.00;98040.53;5060585;28;20047;-85
2023/01/04 02:27:56;;;;;;;1.90;0.90;;;;;;;13.59;100.00;98042.78;5079397;28;20041;-85
2023/01/04 02:30:37;;;;;;;0.80;0.80;;;;;;;13.56;100.00;98026.41;5080025;28;20111;-85
2023/01/04 02:33:40;;;;;;;4.75;0.95;;;;;;;13.75;100.00;98034.03;5084390;28;20043;-85
2023/01/04 02:36:22;;;;;;;2.83;0.90;;;;;;;13.64;100.00;98024.38;5077315;28;20044;-84
2023/01/04 02:39:04;;;;;;;0.75;0.75;;;;;;;13.53;100.00;98026.84;5086137;28;20386;-86
2023/01/04 02:41:42;;;;;;;1.50;0.88;;;;;;;13.48;100.00;98034.69;5082956;28;20070;-86
2023/01/04 02:47:05;;;;;;;0.90;0.90;;;;;;;13.63;100.00;98036.75;5078256;28;20051;-87
2023/01/04 02:52:15;;;;;;;1.13;1.00;;;;;;;13.75;100.00;98034.03;5078818;28;20115;-85
2023/01/04 02:54:43;;;;;;;1.05;0.98;;;;;;;13.63;100.00;98030.69;5079151;28;20714;-85
2023/01/04 02:57:37;;;;;;;1.20;1.10;;;;;;;13.74;100.00;98032.44;5074344;28;20381;-86
2023/01/04 03:00:33;;;;;;;1.05;0.95;;;;;;;13.33;100.00;98021.19;5085253;28;20032;-84
2023/01/04 03:06:16;;;;;;;1.27;1.17;;;;;;;13.59;100.00;98026.94;5081081;28;20386;-85
2023/01/04 03:08:51;;;;;;;7.13;1.45;;;;;;;13.71;100.00;98020.56;5072494;28;20123;-85
2023/01/04 03:14:21;;;;;;;1.52;0.80;;;;;;;13.84;100.00;98031.81;5083178;28;20423;-85
2023/01/04 03:16:50;;;;;;;1.00;0.90;;;;;;;13.80;100.00;98026.22;5072374;28;20061;-85
2023/01/04 03:35:21;;;;;;;0.80;0.80;;;;;;;13.71;100.00;98017.91;5074709;28;20409;-86
2023/01/04 03:36:26;;;;;;;1.35;1.20;;;;;;;13.35;100.00;97996.22;5083079;28;20028;-86
2023/01/04 03:50:47;;;;;;;1.30;1.20;;;;;;;13.79;100.00;98023.81;5080878;28;20025;-86
2023/01/04 03:53:13;;;;;;;2.38;1.50;;;;;;;13.78;100.00;98022.22;5088414;28;20024;-85
2023/01/04 03:55:42;;;;;;;2.10;1.30;;;;;;;13.70;100.00;98016.31;5084180;28;20078;-85
2023/01/04 03:58:07;;;;;;;2.42;1.40;;;;;;;13.50;100.00;98018.63;5077423;28;20109;-84
2023/01/04 04:00:33;;;;;;;1.77;1.38;;;;;;;13.43;100.00;98029.31;5078430;28;20486;-86
2023/01/04 04:03:06;;;;;;;3.38;1.60;;;;;;;13.40;100.00;98021.88;5080329;28;20089;-84
2023/01/04 04:08:28;;;;;;;2.22;1.70;;;;;;;13.32;100.00;98025.69;5078996;28;20424;-85
2023/01/04 04:13:46;;;;;;;3.38;1.80;;;;;;;13.32;100.00;98006.44;5078918;28;20500;-86
2023/01/04 04:16:12;;;;;;;5.40;1.83;;;;;;;13.45;100.00;98002.72;5076382;28;20377;-85
2023/01/04 04:18:38;;;;;;;2.65;1.80;;;;;;;13.19;100.00;97989.09;5067607;28;20036;-85
2023/01/04 04:21:04;;;;;;;2.58;1.52;;;;;;;12.94;100.00;98000.78;5085122;28;20066;-86
2023/01/04 04:23:30;;;;;;;4.82;1.80;;;;;;;13.04;100.00;97987.00;5078755;28;20048;-87
2023/01/04 04:25:55;;;;;;;8.93;2.10;;;;;;;12.93;100.00;97991.28;5078039;28;20068;-86
2023/01/04 04:28:21;;;;;;;4.60;1.98;;;;;;;12.57;100.00;97988.75;5074209;28;20024;-87
2023/01/04 04:30:51;;;;;;;5.22;1.75;;;;;;;12.69;100.00;98002.69;5085022;28;20024;-85
2023/01/04 04:33:17;;;;;;;7.72;2.22;;;;;;;12.64;100.00;98020.22;5081204;28;20115;-85
2023/01/04 04:35:43;;;;;;;6.10;1.95;;;;;;;12.73;100.00;97996.94;5081180;28;20838;-89
2023/01/04 04:38:09;;;;;;;9.68;2.13;;;;;;;12.62;100.00;97991.50;5080248;28;20059;-88
2023/01/04 04:43:21;;;;;;;9.43;1.85;;;;;;;12.26;100.00;97982.88;5083785;28;20042;-86
2023/01/04 04:45:49;;;;;;;10.60;2.33;;;;;;;12.04;100.00;98011.59;5083869;28;20028;-87
2023/01/04 04:48:15;;;;;;;8.38;2.40;;;;;;;12.24;100.00;98021.78;5085808;28;20517;-87
2023/01/04 04:50:40;;;;;;;5.57;1.92;;;;;;;12.34;100.00;98011.47;5082379;28;20024;-87
2023/01/04 04:53:06;;;;;;;17.25;3.55;;;;;;;12.08;100.00;98003.03;5068434;28;20393;-87
2023/01/04 04:55:31;;;;;;;8.45;2.05;;;;;;;12.10;100.00;97982.56;5078011;28;20074;-86
2023/01/04 04:57:58;;;;;;;12.10;3.60;;;;;;;12.24;100.00;98001.53;5084166;28;20036;-83
2023/01/04 05:00:23;;;;;;;12.57;2.10;;;;;;;12.11;100.00;97999.16;5080306;28;20102;-86
2023/01/04 05:02:49;;;;;;;13.15;2.22;;;;;;;12.12;100.00;97998.91;5084062;28;20032;-86
2023/01/04 05:05:14;;;;;;;11.30;2.10;;;;;;;12.01;100.00;97997.09;5090391;28;20126;-84
2023/01/04 05:07:40;;;;;;;16.92;2.97;;;;;;;11.97;100.00;98001.97;5079087;28;20032;-86
2023/01/04 05:10:06;;;;;;;9.35;2.58;;;;;;;12.04;100.00;98007.16;5066314;28;20073;-86
2023/01/04 05:15:19;;;;;;;13.15;2.75;;;;;;;12.11;100.00;97981.53;5081632;28;20394;-86
2023/01/04 05:17:45;;;;;;;12.48;2.58;;;;;;;11.98;100.00;97992.25;5088290;28;20385;-86
2023/01/04 05:20:10;;;;;;;16.20;2.83;;;;;;;11.86;100.00;97985.16;5083962;28;20103;-86
2023/01/04 05:22:36;;;;;;;14.30;2.63;;;;;;;11.70;100.00;97986.66;5079763;28;20057;-84
2023/01/04 05:25:02;;;;;;;13.10;2.72;;;;;;;11.71;100.00;97988.25;5085190;28;20489;-87
2023/01/04 05:27:27;;;;;;;16.15;3.42;;;;;;;11.72;100.00;97994.31;5088199;28;20035;-86
2023/01/04 05:32:37;;;;;;;18.52;3.60;;;;;;;11.59;100.00;97984.81;5082961;28;20032;-88
2023/01/04 05:35:02;;;;;;;19.67;2.88;;;;;;;11.63;100.00;98011.44;5082461;28;20539;-86
2023/01/04 05:37:28;;;;;;;14.63;2.72;;;;;;;11.75;100.00;98017.50;5079582;28;20028;-86
2023/01/04 05:39:54;;;;;;;16.30;4.32;;;;;;;11.46;100.00;97991.09;5082684;28;21161;-85
2023/01/04 05:42:26;;;;;;;22.90;4.10;;;;;;;11.77;100.00;98007.56;5086730;28;20038;-85
2023/01/04 05:44:57;;;;;;;15.82;3.70;;;;;;;11.81;100.00;98008.72;5082489;28;20021;-84
2023/01/04 05:47:23;;;;;;;14.75;3.00;;;;;;;11.74;100.00;98044.81;5080785;28;20052;-86
2023/01/04 05:49:50;;;;;;;15.57;3.97;;;;;;;11.84;100.00;98034.56;5076780;28;20501;-84
2023/01/04 05:52:16;;;;;;;16.67;3.55;;;;;;;11.81;100.00;98021.88;5083068;28;20038;-85
2023/01/04 05:54:41;;;;;;;25.05;4.05;;;;;;;12.04;100.00;98027.38;5087069;28;20023;-84
2023/01/04 05:57:08;;;;;;;30.98;4.20;;;;;;;11.95;100.00;98030.34;5081379;28;20497;-84
2023/01/04 05:59:34;;;;;;;23.45;3.90;;;;;;;12.20;100.00;98029.31;5080376;28;20512;-85
2023/01/04 06:02:00;;;;;;;18.52;3.53;;;;;;;11.99;100.00;98030.69;5081910;28;20032;-84
2023/01/04 06:04:26;;;;;;;19.70;3.95;;;;;;;12.08;100.00;98029.34;5087367;28;20035;-84
2023/01/04 06:06:51;;;;;;;18.08;4.55;;;;;;;12.27;100.00;98021.31;5078765;28;20029;-84
2023/01/04 06:09:17;;;;;;;14.27;3.13;;;;;;;11.76;100.00;98024.38;5081620;28;20032;-85
2023/01/04 06:11:42;;;;;;;13.90;3.42;;;;;;;12.19;100.00;98032.19;5076269;28;20032;-83
2023/01/04 06:14:08;;;;;;;17.33;3.10;;;;;;;12.27;100.00;98026.56;5075512;28;20059;-84
2023/01/04 06:16:33;;;;;;;14.20;3.22;;;;;;;12.10;100.00;98032.53;5084211;28;20124;-84
2023/01/04 06:19:00;;;;;;;17.17;3.85;;;;;;;12.09;100.00;98009.88;5080562;28;20319;-84
2023/01/04 06:21:25;;;;;;;11.43;2.95;;;;;;;12.38;100.00;98020.50;5078400;28;20478;-85
2023/01/04 06:23:52;;;;;;;16.23;3.33;;;;;;;12.25;100.00;98018.13;5085529;28;20031;-86
2023/01/04 06:26:18;;;;;;;19.88;4.03;;;;;;;12.08;100.00;98018.81;5088357;28;20084;-85
2023/01/04 06:28:43;;;;;;;27.08;4.75;;;;;;;12.18;100.00;98041.91;5078204;28;20024;-87
2023/01/04 06:31:10;;;;;;;26.05;4.40;;;;;;;12.36;100.00;98024.41;5066229;28;20025;-87
2023/01/04 06:33:36;;;;;;;20.08;3.70;;;;;;;12.30;100.00;98057.69;5081569;28;20051;-85
2023/01/04 06:36:03;;;;;;;25.48;3.80;;;;;;;12.36;100.00;98038.34;5081327;28;20043;-84
2023/01/04 06:38:30;;;;;;;19.15;4.18;;;;;;;12.19;100.00;98048.00;5086647;28;20466;-86
2023/01/04 06:40:56;;;;;;;21.58;4.43;;;;;;;12.33;100.00;98041.44;5087555;28;20082;-86
2023/01/04 06:43:21;;;;;;;30.85;5.32;;;;;;;12.42;100.00;98034.81;5085475;28;20424;-86
2023/01/04 06:45:47;;;;;;;19.40;5.05;;;;;;;12.02;100.00;98035.50;5076123;28;20071;-86
2023/01/04 06:48:12;;;;;;;29.52;5.05;;;;;;;12.18;100.00;98036.66;5082069;28;20040;-87
2023/01/04 06:50:39;;;;;;;30.10;5.40;;;;;;;12.41;100.00;98054.25;5077092;28;20032;-84
2023/01/04 06:53:04;;;;;;;28.63;5.53;;;;;;;12.06;100.00;98047.19;5076956;28;20089;-83
2023/01/04 06:55:30;;;;;;;38.95;5.55;;;;;;;12.02;100.00;98046.03;5077862;28;20367;-87
2023/01/04 06:57:56;;;;;;;39.55;5.82;;;;;;;12.04;100.00;98043.97;5076995;28;20031;-87
2023/01/04 07:00:23;;;;;;;37.90;6.45;;;;;;;12.06;100.00;98031.41;5087771;28;20063;-87
2023/01/04 07:02:48;;;;;;;33.97;6.20;;;;;;;11.97;100.00;98041.41;5079354;28;20029;-85
2023/01/04 07:05:14;;;;;;;33.53;6.55;;;;;;;11.81;100.00;98024.50;5087543;28;20031;-83
2023/01/04 07:07:40;;;;;;;44.47;7.65;;;;;;;11.99;100.00;98041.22;5062430;28;20032;-82
2023/01/04 07:10:06;;;;;;;38.10;6.85;;;;;;;12.05;100.00;98024.53;5082883;28;20497;-84
2023/01/04 07:12:31;;;;;;;36.38;7.25;;;;;;;11.79;100.00;97999.44;5080383;28;21860;-85
2023/01/04 07:14:57;;;;;;;36.75;5.95;;;;;;;12.17;100.00;98014.00;5076503;28;20076;-83
2023/01/04 07:17:23;;;;;;;43.47;6.45;;;;;;;12.07;100.00;98040.88;5078020;28;20107;-83
2023/01/04 07:19:48;;;;;;;45.70;6.72;;;;;;;12.06;100.00;98036.66;5081405;28;20028;-84
2023/01/04 07:22:14;;;;;;;33.80;6.72;;;;;;;12.13;100.00;98041.81;5077059;28;20035;-83
2023/01/04 07:24:39;;;;;;;38.97;5.95;;;;;;;12.16;100.00;98043.16;5073720;28;20025;-84
2023/01/04 07:27:05;;;;;;;33.33;6.88;;;;;;;12.23;100.00;98057.00;5082593;28;20360;-86
2023/01/04 07:29:31;;;;;;;29.52;4.93;;;;;;;11.85;100.00;98057.19;5063855;28;20125;-83
2023/01/04 07:31:57;;;;;;;35.10;7.30;;;;;;;12.00;100.00;98063.84;5079880;28;20040;-84
2023/01/04 07:34:24;;;;;;;30.80;6.03;;;;;;;11.95;100.00;98058.44;5087343;28;20032;-85
2023/01/04 07:36:50;;;;;;;26.48;5.57;;;;;;;11.84;100.00;98042.44;5083724;28;20063;-85
2023/01/04 07:39:17;;;;;;;31.30;6.15;;;;;;;11.82;100.00;98034.00;5083428;28;20430;-86
2023/01/04 07:41:43;;;;;;;24.02;4.93;;;;;;;11.57;100.00;98040.22;5075821;28;20039;-86
2023/01/04 07:44:10;;;;;;;29.73;5.32;;;;;;;11.76;100.00;98040.13;5082159;28;20036;-85
2023/01/04 07:46:38;;;;;;;31.08;5.80;;;;;;;11.88;100.00;98055.13;5080460;28;20496;-87
2023/01/04 07:49:04;;;;;;;22.67;4.75;;;;;;;11.68;100.00;98062.28;5080629;28;20024;-85
2023/01/04 07:51:31;;;;;;;29.77;5.35;;;;;;;11.61;100.00;98042.41;5084374;28;20038;-84
2023/01/04 07:53:57;;;;;;;20.60;4.05;;;;;;;11.78;100.00;98056.47;5078934;28;20031;-87
2023/01/04 07:56:23;;;;;;;24.45;4.75;;;;;;;11.67;100.00;98049.38;5080508;28;20024;-85
2023/01/04 07:58:49;;;;;;;24.90;5.55;;;;;;;11.73;100.00;98072.13;5078284;28;20431;-87
2023/01/04 08:01:17;;;;;;;29.27;6.57;;;;;;;11.67;100.00;98057.28;5067157;28;20052;-86
2023/01/04 08:03:46;;;;;;;27.88;5.18;;;;;;;11.65;100.00;98035.69;5078064;28;20024;-86
2023/01/04 08:06:13;;;;;;;31.88;4.90;;;;;;;11.76;100.00;98061.16;5077085;28;20028;-86
2023/01/04 08:08:39;;;;;;;26.58;5.00;;;;;;;11.60;100.00;98048.69;5075609;28;20032;-84
2023/01/04 08:11:08;;;;;;;24.30;4.22;;;;;;;11.69;100.00;98056.03;5075678;28;20029;-85
2023/01/04 08:13:34;;;;;;;25.85;4.72;;;;;;;11.58;100.00;98056.81;5084055;28;20382;-88
2023/01/04 08:15:59;;;;;;;35.30;4.78;;;;;;;11.40;100.00;98036.66;5082186;28;20032;-83
2023/01/04 08:18:25;;;;;;;28.65;5.63;;;;;;;11.64;100.00;98053.25;5077339;28;20032;-81
2023/01/04 08:21:01;;;;;;;26.73;5.90;;;;;;;11.90;100.00;98058.34;5079736;28;20456;-81
2023/01/04 08:23:27;;;;;;;22.00;4.93;;;;;;;11.49;100.00;98052.88;5077326;28;20043;-83
2023/01/04 08:25:53;;;;;;;21.23;4.40;;;;;;;11.33;100.00;98080.59;5076651;28;20024;-87
2023/01/04 08:28:18;;;;;;;20.80;4.28;;;;;;;11.56;100.00;98058.84;5061809;28;20032;-85
2023/01/04 08:30:44;;;;;;;21.45;4.78;;;;;;;11.74;100.00;98071.09;5082565;28;20078;-83
2023/01/04 08:33:14;;;;;;;24.02;4.43;;;;;;;11.56;100.00;98079.88;5081434;28;20028;-85
2023/01/04 08:35:39;;;;;;;21.10;5.45;;;;;;;11.78;100.00;98101.19;5086028;28;20028;-83
2023/01/04 08:38:05;;;;;;;22.80;4.97;;;;;;;11.51;100.00;98066.63;5080440;28;20474;-82
2023/01/04 08:40:30;;;;;;;17.83;4.22;;;;;;;11.53;100.00;98069.81;5077791;28;20043;-84
2023/01/04 08:42:56;;;;;;;17.75;4.13;;;;;;;11.57;100.00;98092.78;5080824;28;20373;-83
2023/01/04 08:45:21;;;;;;;24.80;4.50;;;;;;;11.47;100.00;98087.28;5064108;28;20075;-83
2023/01/04 08:47:47;;;;;;;23.77;4.85;;;;;;;11.58;100.00;98083.88;5082447;28;20028;-85
2023/01/04 08:50:15;;;;;;;24.80;4.22;;;;;;;11.53;100.00;98069.81;5081923;28;20032;-82
2023/01/04 08:52:41;;;;;;;34.78;6.68;;;;;;;11.49;100.00;98074.72;5079178;28;20048;-85
2023/01/04 08:55:07;;;;;;;18.98;3.97;;;;;;;11.79;100.00;98097.53;5080198;28;20024;-82
2023/01/04 08:57:34;;;;;;;21.58;3.45;;;;;;;11.84;100.00;98102.09;5058529;28;20479;-83
2023/01/04 09:00:00;;;;;;;24.63;4.93;;;;;;;11.85;100.00;98096.63;5079589;28;20055;-82
2023/01/04 09:02:27;;;;;;;19.58;4.40;;;;;;;11.68;100.00;98106.19;5077049;28;20402;-83
2023/01/04 09:04:58;;;;;;;30.38;4.38;;;;;;;11.45;100.00;98089.34;5082493;28;20162;-83
2023/01/04 09:07:28;;;;;;;28.02;4.70;;;;;;;11.66;100.00;98110.88;5077567;28;20040;-83
2023/01/04 09:09:54;;;;;;;25.30;4.53;;;;;;;11.50;100.00;98084.19;5081142;28;20032;-83
2023/01/04 09:12:20;;;;;;;15.50;3.95;;;;;;;11.68;100.00;98099.09;5081043;28;20034;-83
2023/01/04 09:14:46;;;;;;;24.35;5.15;;;;;;;11.69;100.00;98094.66;5077128;28;20029;-84
2023/01/04 09:17:11;;;;;;;22.50;4.88;;;;;;;11.58;100.00;98104.91;5062960;28;20043;-84
2023/01/04 09:19:38;;;;;;;22.27;4.53;;;;;;;11.53;100.00;98112.66;5078645;28;20032;-83
2023/01/04 09:22:03;;;;;;;23.98;3.90;;;;;;;11.63;100.00;98127.09;5087408;28;20081;-83
2023/01/04 09:24:32;;;;;;;22.40;4.45;;;;;;;11.66;100.00;98129.28;5076663;28;20030;-84
2023/01/04 09:27:03;;;;;;;25.58;4.50;;;;;;;11.61;100.00;98118.63;5082478;28;20029;-84
2023/01/04 09:29:29;;;;;;;29.45;4.22;;;;;;;11.62;100.00;98126.28;5085384;28;20050;-84
2023/01/04 09:31:54;;;;;;;30.83;4.95;;;;;;;11.82;100.00;98157.56;5070415;28;20028;-84
2023/01/04 09:34:20;;;;;;;25.40;4.30;;;;;;;11.64;100.00;98126.06;5078032;28;20068;-90
2023/01/04 09:36:47;;;;;;;24.17;5.32;;;;;;;11.70;100.00;98167.22;5072673;28;20032;-86
2023/01/04 09:39:15;;;;;;;22.50;4.20;;;;;;;11.29;100.00;98096.81;5083695;28;20481;-87
2023/01/04 09:42:02;;;;;;;27.92;4.28;;;;;;;11.43;100.00;98099.28;5081291;28;20033;-86
2023/01/04 09:44:42;;;;;;;30.42;4.25;;;;;;;11.89;100.00;98130.38;5078354;28;20044;-86
2023/01/04 09:47:14;;;;;;;24.10;4.40;;;;;;;11.79;100.00;98108.06;5075780;28;20032;-86
2023/01/04 09:49:56;;;;;;;30.42;4.65;;;;;;;12.03;100.00;98137.06;5076526;28;20028;-88
2023/01/04 09:52:26;;;;;;;25.27;3.97;;;;;;;11.79;100.00;98146.69;5090054;28;20028;-88
2023/01/04 09:55:00;;;;;;;26.35;5.68;;;;;;;11.60;100.00;98169.59;5088138;28;20020;-87
2023/01/04 09:57:27;;;;;;;;;;;;;;;11.78;100.00;98161.66;5067304;28;20082;-87
2023/01/04 10:00:27;;;;;;;26.67;5.10;;;;;;;11.75;100.00;98177.88;5083528;28;20279;-88
2023/01/04 10:02:55;;;;;;;20.00;4.75;;;;;;;11.83;100.00;98182.84;5069467;28;20051;-91
2023/01/04 10:05:30;;;;;;;22.85;5.25;;;;;;;11.81;100.00;98179.63;5078093;28;20037;-87
2023/01/04 10:07:56;;;;;;;24.55;4.25;;;;;;;11.93;100.00;98192.81;5082864;28;20445;-88
2023/01/04 10:10:53;;;;;;;28.73;4.93;;;;;;;11.79;100.00;98180.88;5070677;28;20056;-88
2023/01/04 10:13:43;;;;;;;33.45;5.10;;;;;;;12.00;100.00;98192.72;5060867;28;20382;-88
2023/01/04 10:16:27;;;;;;;31.35;4.68;;;;;;;11.89;100.00;98219.78;5087092;28;20017;-89
2023/01/04 10:19:17;;;;;;;36.90;6.20;;;;;;;11.66;100.00;98195.78;5070024;28;20020;-85
2023/01/04 10:22:14;;;;;;;26.13;4.43;;;;;;;11.57;100.00;98202.38;5085648;28;20103;-87
2023/01/04 10:24:43;;;;;;;17.70;3.80;;;;;;;12.00;100.00;98208.50;5083675;28;20351;-89
2023/01/04 10:27:41;;;;;;;28.30;5.03;;;;;;;11.71;100.00;98229.28;5092272;28;20149;-87
2023/01/04 10:30:17;;;;;;;28.27;4.43;;;;;;;11.55;100.00;98196.53;5081470;28;20024;-88
2023/01/04 10:32:47;;;;;;;20.13;3.85;;;;;;;12.13;100.00;98241.72;5081387;28;20025;-88
2023/01/04 10:35:19;;;;;;;23.42;4.20;;;;;;;12.16;100.00;98211.53;5073554;28;20024;-89
2023/01/04 10:37:50;;;;;;;22.67;4.25;;;;;;;11.43;100.00;98207.00;5066878;28;20036;-89
2023/01/04 10:40:17;;;;;;;33.65;5.72;;;;;;;11.42;100.00;98236.94;5079024;28;20035;-87
2023/01/04 10:43:03;;;;;;;27.27;5.50;;;;;;;11.75;100.00;98232.28;5064664;28;20107;-88
2023/01/04 10:45:47;;;;;;;21.25;4.53;;;;;;;12.16;100.00;98248.34;5092034;28;20028;-87
2023/01/04 10:48:39;;;;;;;18.67;3.78;;;;;;;12.05;100.00;98221.81;5067838;28;20028;-87
2023/01/04 10:51:06;;;;;;;27.30;4.38;;;;;;;12.02;100.00;98203.03;5082908;28;20036;-87
2023/01/04 10:53:45;;;;;;;30.65;4.72;;;;;;;12.00;100.00;98195.34;5088202;28;20036;-87
2023/01/04 10:56:23;;;;;;;23.40;4.55;;;;;;;11.96;100.00;98208.13;5088340;28;20036;-87
2023/01/04 10:58:58;;;;;;;14.48;4.07;;;;;;;12.33;100.00;98193.28;5090930;28;20383;-86
2023/01/04 11:01:32;;;;;;;18.08;4.38;;;;;;;12.20;100.00;98236.38;5080608;28;20127;-86
2023/01/04 11:04:07;;;;;;;18.73;4.32;;;;;;;12.20;100.00;98239.00;5077688;28;20055;-88
2023/01/04 11:06:51;;;;;;;20.45;4.18;;;;;;;12.26;100.00;98231.00;5086091;28;20035;-86
2023/01/04 11:09:22;;;;;;;21.30;4.18;;;;;;;12.20;100.00;98252.94;5066747;28;20382;-87
2023/01/04 11:11:50;;;;;;;19.95;4.75;;;;;;;12.45;100.00;98238.81;5083119;28;20082;-87
2023/01/04 11:14:15;;;;;;;24.42;4.20;;;;;;;12.19;100.00;98226.88;5080584;28;20035;-86
2023/01/04 11:16:47;;;;;;;20.30;4.07;;;;;;;11.93;100.00;98215.66;5083740;28;20028;-86
2023/01/04 11:19:14;;;;;;;23.00;4.45;;;;;;;12.11;100.00;98210.38;5083974;28;20024;-86
2023/01/04 11:21:47;;;;;;;20.10;4.82;;;;;;;12.12;100.00;98261.97;5081982;28;20084;-86
2023/01/04 11:24:15;;;;;;;24.80;5.22;;;;;;;12.28;100.00;98231.59;5082613;28;20407;-87
2023/01/04 11:26:43;;;;;;;21.55;4.13;;;;;;;12.19;100.00;98250.56;5079914;28;20035;-89
2023/01/04 11:29:31;;;;;;;21.65;4.45;;;;;;;12.50;100.00;98217.09;5087638;28;20042;-88
2023/01/04 11:32:00;;;;;;;29.27;4.85;;;;;;;12.27;100.00;98237.06;5068882;28;20051;-87
2023/01/04 11:34:49;;;;;;;25.40;4.32;;;;;;;12.03;100.00;98229.13;5086555;28;20055;-86
2023/01/04 11:37:36;;;;;;;24.33;4.05;;;;;;;12.70;100.00;98246.53;5080327;28;20045;-86
2023/01/04 11:40:21;;;;;;;29.88;5.05;;;;;;;12.33;100.00;98212.47;5077300;28;20086;-86
2023/01/04 11:42:51;;;;;;;28.73;5.22;;;;;;;12.59;100.00;98228.91;5080322;28;20024;-86
2023/01/04 11:45:22;;;;;;;28.50;4.75;;;;;;;12.55;100.00;98230.34;5085013;28;20036;-86
2023/01/04 11:47:56;;;;;;;23.63;5.65;;;;;;;12.63;100.00;98245.03;5080919;28;20032;-87
2023/01/04 11:50:44;;;;;;;17.50;4.93;;;;;;;12.73;100.00;98255.00;5082809;28;20390;-87
2023/01/04 11:53:29;;;;;;;21.75;4.50;;;;;;;12.37;100.00;98211.00;5062516;28;20077;-88
2023/01/04 11:56:14;;;;;;;39.30;5.45;;;;;;;12.99;100.00;98228.22;5082814;28;20025;-86
2023/01/04 11:58:41;;;;;;;22.42;4.28;;;;;;;12.59;100.00;98249.97;5082632;28;20032;-86
2023/01/04 12:01:19;;;;;;;18.67;4.15;;;;;;;12.80;100.00;98245.16;5078469;28;20410;-88
2023/01/04 12:03:45;;;;;;;18.23;3.83;;;;;;;12.64;100.00;98230.81;5079773;28;20033;-88
2023/01/04 12:06:20;;;;;;;22.70;5.35;;;;;;;12.37;100.00;98247.03;5063631;28;20500;-86
2023/01/04 12:08:47;;;;;;;25.08;5.30;;;;;;;12.03;100.00;98244.91;5085550;28;20030;-87
2023/01/04 12:11:38;;;;;;;18.27;4.10;;;;;;;12.49;100.00;98281.28;5067305;28;20102;-87
2023/01/04 12:14:19;;;;;;;29.55;5.57;;;;;;;12.28;100.00;98291.31;5078919;28;20492;-86
2023/01/04 12:16:55;;;;;;;23.35;4.43;;;;;;;12.53;100.00;98277.97;5077310;28;20020;-86
2023/01/04 12:19:21;;;;;;;22.70;4.97;;;;;;;12.36;100.00;98292.81;5078603;28;20059;-85
2023/01/04 12:21:51;;;;;;;24.67;4.72;;;;;;;12.43;100.00;98289.06;5075542;28;20032;-84
2023/01/04 12:24:24;;;;;;;28.63;4.82;;;;;;;12.12;100.00;98292.75;5080890;28;20047;-83
2023/01/04 12:26:52;;;;;;;28.67;5.25;;;;;;;12.50;100.00;98293.41;5071169;28;20494;-85